sensor_id;sensor_type;location;lat;lon;timestamp;P1;P2;P0
77516;PMS7003;68414;53.946;27.634;2023-09-19T00:00:25;17.850000;16.350000;12.550000
77516;PMS7003;68414;53.946;27.634;2023-09-19T00:01:25;16.033333;15.100000;11.566667
77516;PMS7003;68414;53.946;27.634;2023-09-19T00:02:24;16.933332;15.266666;11.633333
77516;PMS7003;68414;53.946;27.634;2023-09-19T00:03:25;16.733334;16.366667;13.016666
77516;PMS7003;68414;53.946;27.634;2023-09-19T00:04:25;15.550000;15.250000;12.050000
77516;PMS7003;68414;53.946;27.634;2023-09-19T00:05:27;15.350000;15.283334;11.700000
77516;PMS7003;68414;53.946;27.634;2023-09-19T00:06:25;15.066667;14.833333;10.766666
77516;PMS7003;68414;53.946;27.634;2023-09-19T00:07:25;15.333333;14.700000;11.450000
77516;PMS7003;68414;53.946;27.634;2023-09-19T00:08:25;15.900000;15.050000;10.533334
77516;PMS7003;68414;53.946;27.634;2023-09-19T00:09:25;18.516666;16.966667;11.566667
77516;PMS7003;68414;53.946;27.634;2023-09-19T00:10:26;14.566667;13.916667;10.983334
77516;PMS7003;68414;53.946;27.634;2023-09-19T00:11:25;15.033334;14.433333;11.016666
77516;PMS7003;68414;53.946;27.634;2023-09-19T00:12:26;16.000000;15.816667;12.466666
77516;PMS7003;68414;53.946;27.634;2023-09-19T00:13:24;15.116667;14.433333;10.883333
77516;PMS7003;68414;53.946;27.634;2023-09-19T00:14:25;14.250000;14.133333;10.916667
77516;PMS7003;68414;53.946;27.634;2023-09-19T00:15:26;14.533334;14.300000;10.900000
77516;PMS7003;68414;53.946;27.634;2023-09-19T00:16:25;15.550000;14.933333;11.533334
77516;PMS7003;68414;53.946;27.634;2023-09-19T00:17:25;16.116667;15.716666;11.750000
77516;PMS7003;68414;53.946;27.634;2023-09-19T00:18:25;15.850000;15.083333;11.100000
77516;PMS7003;68414;53.946;27.634;2023-09-19T00:19:24;15.016666;14.900000;11.433333
77516;PMS7003;68414;53.946;27.634;2023-09-19T00:20:25;15.200000;14.966666;12.050000
77516;PMS7003;68414;53.946;27.634;2023-09-19T00:21:25;15.750000;15.066667;10.733334
77516;PMS7003;68414;53.946;27.634;2023-09-19T00:22:26;15.716666;14.816667;11.350000
77516;PMS7003;68414;53.946;27.634;2023-09-19T00:23:24;16.866667;16.866667;11.916667
77516;PMS7003;68414;53.946;27.634;2023-09-19T00:24:24;14.433333;13.950000;10.966666
77516;PMS7003;68414;53.946;27.634;2023-09-19T00:25:25;17.400000;15.850000;12.550000
77516;PMS7003;68414;53.946;27.634;2023-09-19T00:26:24;16.466667;15.916667;12.583333
77516;PMS7003;68414;53.946;27.634;2023-09-19T00:27:25;14.716666;14.100000;11.116667
77516;PMS7003;68414;53.946;27.634;2023-09-19T00:28:25;15.383333;14.250000;10.933333
77516;PMS7003;68414;53.946;27.634;2023-09-19T00:29:25;15.216666;14.833333;11.133333
77516;PMS7003;68414;53.946;27.634;2023-09-19T00:30:24;13.883333;13.850000;10.766666
77516;PMS7003;68414;53.946;27.634;2023-09-19T00:31:24;15.500000;14.583333;11.650000
77516;PMS7003;68414;53.946;27.634;2023-09-19T00:32:24;14.050000;13.133333;10.683333
77516;PMS7003;68414;53.946;27.634;2023-09-19T00:33:24;15.133333;14.566667;10.983334
77516;PMS7003;68414;53.946;27.634;2023-09-19T00:34:24;17.100000;16.650000;12.350000
77516;PMS7003;68414;53.946;27.634;2023-09-19T00:35:24;16.250000;15.650000;11.950000
77516;PMS7003;68414;53.946;27.634;2023-09-19T00:36:25;14.400000;13.533334;11.133333
77516;PMS7003;68414;53.946;27.634;2023-09-19T00:37:24;15.500000;13.866667;11.533334
77516;PMS7003;68414;53.946;27.634;2023-09-19T00:38:25;15.883333;15.600000;11.683333
77516;PMS7003;68414;53.946;27.634;2023-09-19T00:39:25;15.933333;15.516666;12.333333
77516;PMS7003;68414;53.946;27.634;2023-09-19T00:40:25;17.516666;16.883333;12.450000
77516;PMS7003;68414;53.946;27.634;2023-09-19T00:41:25;15.066667;14.750000;10.866667
77516;PMS7003;68414;53.946;27.634;2023-09-19T00:42:24;14.816667;14.550000;11.616667
77516;PMS7003;68414;53.946;27.634;2023-09-19T00:43:26;16.933332;15.533334;11.800000
77516;PMS7003;68414;53.946;27.634;2023-09-19T00:44:25;15.900000;15.383333;12.016666
77516;PMS7003;68414;53.946;27.634;2023-09-19T00:45:24;15.133333;13.216666;10.783334
77516;PMS7003;68414;53.946;27.634;2023-09-19T00:46:25;15.950000;14.766666;11.500000
77516;PMS7003;68414;53.946;27.634;2023-09-19T00:47:25;17.233334;17.216667;12.766666
77516;PMS7003;68414;53.946;27.634;2023-09-19T00:48:25;14.200000;13.916667;11.350000
77516;PMS7003;68414;53.946;27.634;2023-09-19T00:49:24;15.266666;14.850000;11.333333
77516;PMS7003;68414;53.946;27.634;2023-09-19T00:50:25;15.366667;14.966666;12.133333
77516;PMS7003;68414;53.946;27.634;2023-09-19T00:51:25;15.450000;15.166667;11.000000
77516;PMS7003;68414;53.946;27.634;2023-09-19T00:52:25;14.166667;13.650000;11.000000
77516;PMS7003;68414;53.946;27.634;2023-09-19T00:53:25;14.916667;14.500000;11.600000
77516;PMS7003;68414;53.946;27.634;2023-09-19T00:54:25;15.066667;13.466666;11.200000
77516;PMS7003;68414;53.946;27.634;2023-09-19T00:55:25;14.533334;14.366667;11.316667
77516;PMS7003;68414;53.946;27.634;2023-09-19T00:56:24;14.216666;14.183333;11.283334
77516;PMS7003;68414;53.946;27.634;2023-09-19T00:57:24;14.716666;14.716666;11.600000
77516;PMS7003;68414;53.946;27.634;2023-09-19T00:58:25;16.150000;15.283334;11.700000
77516;PMS7003;68414;53.946;27.634;2023-09-19T00:59:24;15.750000;15.550000;11.366667
77516;PMS7003;68414;53.946;27.634;2023-09-19T01:00:25;15.216666;14.100000;10.500000
77516;PMS7003;68414;53.946;27.634;2023-09-19T01:01:25;13.500000;13.183333;10.550000
77516;PMS7003;68414;53.946;27.634;2023-09-19T01:02:25;15.550000;14.116667;11.466666
77516;PMS7003;68414;53.946;27.634;2023-09-19T01:03:25;15.300000;14.116667;11.316667
77516;PMS7003;68414;53.946;27.634;2023-09-19T01:04:25;13.366667;12.750000;10.366667
77516;PMS7003;68414;53.946;27.634;2023-09-19T01:05:24;14.350000;14.216666;11.416667
77516;PMS7003;68414;53.946;27.634;2023-09-19T01:06:24;16.700001;15.200000;11.450000
77516;PMS7003;68414;53.946;27.634;2023-09-19T01:07:25;16.516666;15.133333;11.283334
77516;PMS7003;68414;53.946;27.634;2023-09-19T01:08:24;14.266666;14.100000;10.783334
77516;PMS7003;68414;53.946;27.634;2023-09-19T01:09:25;14.533334;13.900000;10.183333
77516;PMS7003;68414;53.946;27.634;2023-09-19T01:10:25;16.183332;14.883333;11.416667
77516;PMS7003;68414;53.946;27.634;2023-09-19T01:11:31;15.833333;15.066667;11.283334
77516;PMS7003;68414;53.946;27.634;2023-09-19T01:12:30;15.116667;14.066667;11.183333
77516;PMS7003;68414;53.946;27.634;2023-09-19T01:20:28;15.600000;14.966666;11.916667
77516;PMS7003;68414;53.946;27.634;2023-09-19T01:26:30;15.500000;14.483334;10.683333
77516;PMS7003;68414;53.946;27.634;2023-09-19T01:29:33;13.583333;13.383333;10.883333
77516;PMS7003;68414;53.946;27.634;2023-09-19T01:30:27;14.116667;14.116667;10.833333
77516;PMS7003;68414;53.946;27.634;2023-09-19T01:31:28;16.566668;15.300000;11.066667
77516;PMS7003;68414;53.946;27.634;2023-09-19T01:32:25;14.566667;14.116667;12.216666
77516;PMS7003;68414;53.946;27.634;2023-09-19T01:33:25;14.333333;13.400000;10.500000
77516;PMS7003;68414;53.946;27.634;2023-09-19T01:34:26;16.866667;16.049999;11.900000
77516;PMS7003;68414;53.946;27.634;2023-09-19T01:35:26;16.666666;14.766666;12.183333
77516;PMS7003;68414;53.946;27.634;2023-09-19T01:36:27;15.316667;15.016666;11.633333
77516;PMS7003;68414;53.946;27.634;2023-09-19T01:37:25;13.466666;13.433333;10.200000
77516;PMS7003;68414;53.946;27.634;2023-09-19T01:38:25;16.383333;15.783334;12.350000
77516;PMS7003;68414;53.946;27.634;2023-09-19T01:39:24;13.900000;13.450000;10.650000
77516;PMS7003;68414;53.946;27.634;2023-09-19T01:40:25;15.266666;14.266666;10.566667
77516;PMS7003;68414;53.946;27.634;2023-09-19T01:41:33;14.100000;13.266666;10.433333
77516;PMS7003;68414;53.946;27.634;2023-09-19T01:43:27;14.566667;13.750000;10.366667
77516;PMS7003;68414;53.946;27.634;2023-09-19T01:46:30;15.816667;15.033334;11.016666
77516;PMS7003;68414;53.946;27.634;2023-09-19T01:47:28;15.333333;14.750000;11.650000
77516;PMS7003;68414;53.946;27.634;2023-09-19T01:51:32;15.616667;14.850000;11.383333
77516;PMS7003;68414;53.946;27.634;2023-09-19T01:52:28;16.083334;15.200000;11.066667
77516;PMS7003;68414;53.946;27.634;2023-09-19T01:53:27;16.133333;15.300000;12.233334
77516;PMS7003;68414;53.946;27.634;2023-09-19T01:54:27;17.833334;16.966667;12.433333
77516;PMS7003;68414;53.946;27.634;2023-09-19T01:55:26;16.250000;15.316667;12.400000
77516;PMS7003;68414;53.946;27.634;2023-09-19T01:57:29;16.616667;15.350000;11.966666
77516;PMS7003;68414;53.946;27.634;2023-09-19T01:59:26;15.833333;15.516666;12.083333
77516;PMS7003;68414;53.946;27.634;2023-09-19T02:00:25;14.766666;14.066667;10.783334
77516;PMS7003;68414;53.946;27.634;2023-09-19T02:01:25;18.116667;16.983334;12.366667
77516;PMS7003;68414;53.946;27.634;2023-09-19T02:02:25;14.750000;14.733334;10.750000
77516;PMS7003;68414;53.946;27.634;2023-09-19T02:03:24;15.616667;14.766666;10.316667
77516;PMS7003;68414;53.946;27.634;2023-09-19T02:04:25;14.183333;13.766666;10.766666
77516;PMS7003;68414;53.946;27.634;2023-09-19T02:05:25;14.716666;14.000000;10.866667
77516;PMS7003;68414;53.946;27.634;2023-09-19T02:06:25;14.716666;13.533334;11.116667
77516;PMS7003;68414;53.946;27.634;2023-09-19T02:07:24;14.100000;13.333333;10.566667
77516;PMS7003;68414;53.946;27.634;2023-09-19T02:08:25;15.816667;15.816667;11.833333
77516;PMS7003;68414;53.946;27.634;2023-09-19T02:09:25;15.583333;14.783334;11.766666
77516;PMS7003;68414;53.946;27.634;2023-09-19T02:10:24;15.116667;14.750000;11.133333
77516;PMS7003;68414;53.946;27.634;2023-09-19T02:11:25;14.233334;14.233334;11.783334
77516;PMS7003;68414;53.946;27.634;2023-09-19T02:12:24;13.833333;13.516666;11.350000
77516;PMS7003;68414;53.946;27.634;2023-09-19T02:13:25;15.783334;15.500000;11.766666
77516;PMS7003;68414;53.946;27.634;2023-09-19T02:14:24;14.883333;14.133333;11.200000
77516;PMS7003;68414;53.946;27.634;2023-09-19T02:15:24;13.933333;13.433333;10.200000
77516;PMS7003;68414;53.946;27.634;2023-09-19T02:16:24;16.900000;16.083334;11.883333
77516;PMS7003;68414;53.946;27.634;2023-09-19T02:17:25;12.900000;12.750000;10.250000
77516;PMS7003;68414;53.946;27.634;2023-09-19T02:18:24;14.616667;14.350000;10.600000
77516;PMS7003;68414;53.946;27.634;2023-09-19T02:19:24;15.350000;13.583333;10.516666
77516;PMS7003;68414;53.946;27.634;2023-09-19T02:20:24;13.850000;13.266666;9.966666
77516;PMS7003;68414;53.946;27.634;2023-09-19T02:21:24;14.833333;14.400000;11.150000
77516;PMS7003;68414;53.946;27.634;2023-09-19T02:22:24;14.983334;14.683333;11.716666
77516;PMS7003;68414;53.946;27.634;2023-09-19T02:23:24;14.733334;13.566667;10.333333
77516;PMS7003;68414;53.946;27.634;2023-09-19T02:24:24;15.383333;15.033334;11.300000
77516;PMS7003;68414;53.946;27.634;2023-09-19T02:25:24;15.583333;15.500000;11.566667
77516;PMS7003;68414;53.946;27.634;2023-09-19T02:26:24;13.250000;12.966666;10.050000
77516;PMS7003;68414;53.946;27.634;2023-09-19T02:27:24;15.633333;14.800000;11.383333
77516;PMS7003;68414;53.946;27.634;2023-09-19T02:28:24;14.350000;14.116667;11.600000
77516;PMS7003;68414;53.946;27.634;2023-09-19T02:29:24;14.950000;14.516666;11.116667
77516;PMS7003;68414;53.946;27.634;2023-09-19T02:30:25;14.183333;14.083333;10.100000
77516;PMS7003;68414;53.946;27.634;2023-09-19T02:31:24;15.500000;14.766666;10.733334
77516;PMS7003;68414;53.946;27.634;2023-09-19T02:32:24;16.350000;16.350000;13.166667
77516;PMS7003;68414;53.946;27.634;2023-09-19T02:33:25;15.900000;14.633333;11.383333
77516;PMS7003;68414;53.946;27.634;2023-09-19T02:34:24;15.350000;15.200000;11.700000
77516;PMS7003;68414;53.946;27.634;2023-09-19T02:35:24;16.183332;15.016666;11.650000
77516;PMS7003;68414;53.946;27.634;2023-09-19T02:36:24;15.000000;14.283334;11.350000
77516;PMS7003;68414;53.946;27.634;2023-09-19T02:37:24;14.433333;13.833333;10.533334
77516;PMS7003;68414;53.946;27.634;2023-09-19T02:38:26;15.266666;14.533334;12.016666
77516;PMS7003;68414;53.946;27.634;2023-09-19T02:39:24;16.333334;16.133333;12.033334
77516;PMS7003;68414;53.946;27.634;2023-09-19T02:40:24;15.000000;15.000000;11.350000
77516;PMS7003;68414;53.946;27.634;2023-09-19T02:41:24;13.250000;13.250000;10.200000
77516;PMS7003;68414;53.946;27.634;2023-09-19T02:42:24;16.250000;14.900000;10.583333
77516;PMS7003;68414;53.946;27.634;2023-09-19T02:43:24;14.933333;13.833333;10.983334
77516;PMS7003;68414;53.946;27.634;2023-09-19T02:44:24;15.033334;14.783334;10.283334
77516;PMS7003;68414;53.946;27.634;2023-09-19T02:45:25;15.800000;14.883333;11.333333
77516;PMS7003;68414;53.946;27.634;2023-09-19T02:46:24;14.950000;14.066667;11.133333
77516;PMS7003;68414;53.946;27.634;2023-09-19T02:47:24;15.266666;14.366667;11.133333
77516;PMS7003;68414;53.946;27.634;2023-09-19T02:48:24;16.033333;15.633333;10.933333
77516;PMS7003;68414;53.946;27.634;2023-09-19T02:49:24;16.716667;16.083334;12.333333
77516;PMS7003;68414;53.946;27.634;2023-09-19T02:50:25;15.050000;13.383333;11.033334
77516;PMS7003;68414;53.946;27.634;2023-09-19T02:51:24;15.733334;14.933333;11.266666
77516;PMS7003;68414;53.946;27.634;2023-09-19T02:52:24;15.133333;14.800000;11.350000
77516;PMS7003;68414;53.946;27.634;2023-09-19T02:53:24;15.633333;14.766666;11.350000
77516;PMS7003;68414;53.946;27.634;2023-09-19T02:54:25;15.783334;14.916667;10.766666
77516;PMS7003;68414;53.946;27.634;2023-09-19T02:55:24;15.050000;14.483334;10.416667
77516;PMS7003;68414;53.946;27.634;2023-09-19T02:56:24;14.766666;13.016666;10.066667
77516;PMS7003;68414;53.946;27.634;2023-09-19T02:57:24;15.050000;14.116667;10.833333
77516;PMS7003;68414;53.946;27.634;2023-09-19T02:58:24;13.733334;13.233334;10.416667
77516;PMS7003;68414;53.946;27.634;2023-09-19T02:59:24;15.016666;14.233334;11.333333
77516;PMS7003;68414;53.946;27.634;2023-09-19T03:00:24;15.900000;15.500000;11.783334
77516;PMS7003;68414;53.946;27.634;2023-09-19T03:01:24;14.700000;14.700000;11.533334
77516;PMS7003;68414;53.946;27.634;2023-09-19T03:02:24;16.366667;15.800000;10.850000
77516;PMS7003;68414;53.946;27.634;2023-09-19T03:03:24;14.233334;13.466666;10.800000
77516;PMS7003;68414;53.946;27.634;2023-09-19T03:04:24;14.966666;14.283334;10.833333
77516;PMS7003;68414;53.946;27.634;2023-09-19T03:05:24;13.533334;12.883333;9.566667
77516;PMS7003;68414;53.946;27.634;2023-09-19T03:06:24;16.299999;14.766666;10.816667
77516;PMS7003;68414;53.946;27.634;2023-09-19T03:07:24;13.850000;13.850000;10.916667
77516;PMS7003;68414;53.946;27.634;2023-09-19T03:08:24;14.533334;13.816667;10.883333
77516;PMS7003;68414;53.946;27.634;2023-09-19T03:09:24;14.466666;12.966666;10.133333
77516;PMS7003;68414;53.946;27.634;2023-09-19T03:10:24;15.150000;14.200000;10.766666
77516;PMS7003;68414;53.946;27.634;2023-09-19T03:11:24;16.900000;16.266666;11.633333
77516;PMS7003;68414;53.946;27.634;2023-09-19T03:12:24;15.116667;14.666667;11.116667
77516;PMS7003;68414;53.946;27.634;2023-09-19T03:13:24;14.833333;14.100000;11.400000
77516;PMS7003;68414;53.946;27.634;2023-09-19T03:14:24;16.216667;14.933333;11.216666
77516;PMS7003;68414;53.946;27.634;2023-09-19T03:15:24;13.950000;13.750000;10.316667
77516;PMS7003;68414;53.946;27.634;2023-09-19T03:16:26;14.933333;14.466666;11.550000
77516;PMS7003;68414;53.946;27.634;2023-09-19T03:17:24;16.033333;15.533334;12.050000
77516;PMS7003;68414;53.946;27.634;2023-09-19T03:18:25;15.700000;14.683333;11.716666
77516;PMS7003;68414;53.946;27.634;2023-09-19T03:19:24;14.833333;13.633333;10.766666
77516;PMS7003;68414;53.946;27.634;2023-09-19T03:20:24;16.233334;15.016666;10.650000
77516;PMS7003;68414;53.946;27.634;2023-09-19T03:21:24;14.316667;13.983334;10.800000
77516;PMS7003;68414;53.946;27.634;2023-09-19T03:22:26;15.700000;14.700000;11.216666
77516;PMS7003;68414;53.946;27.634;2023-09-19T03:23:24;14.550000;14.333333;11.400000
77516;PMS7003;68414;53.946;27.634;2023-09-19T03:24:24;15.200000;13.766666;10.850000
77516;PMS7003;68414;53.946;27.634;2023-09-19T03:25:24;14.916667;14.050000;10.550000
77516;PMS7003;68414;53.946;27.634;2023-09-19T03:26:24;14.350000;13.933333;11.283334
77516;PMS7003;68414;53.946;27.634;2023-09-19T03:27:24;14.566667;13.716666;10.316667
77516;PMS7003;68414;53.946;27.634;2023-09-19T03:28:24;20.366667;18.016666;12.850000
77516;PMS7003;68414;53.946;27.634;2023-09-19T03:29:24;17.150000;16.283333;11.800000
77516;PMS7003;68414;53.946;27.634;2023-09-19T03:30:24;14.866667;14.866667;11.466666
77516;PMS7003;68414;53.946;27.634;2023-09-19T03:31:24;16.250000;15.016666;11.200000
77516;PMS7003;68414;53.946;27.634;2023-09-19T03:32:25;15.450000;15.150000;11.433333
77516;PMS7003;68414;53.946;27.634;2023-09-19T03:33:24;15.450000;15.050000;11.183333
77516;PMS7003;68414;53.946;27.634;2023-09-19T03:34:24;14.450000;14.450000;10.666667
77516;PMS7003;68414;53.946;27.634;2023-09-19T03:35:24;14.600000;14.083333;10.333333
77516;PMS7003;68414;53.946;27.634;2023-09-19T03:36:24;14.466666;14.033334;10.700000
77516;PMS7003;68414;53.946;27.634;2023-09-19T03:37:24;16.183332;15.350000;11.400000
77516;PMS7003;68414;53.946;27.634;2023-09-19T03:38:25;17.266666;16.783333;12.233334
77516;PMS7003;68414;53.946;27.634;2023-09-19T03:39:24;16.566668;15.516666;11.550000
77516;PMS7003;68414;53.946;27.634;2023-09-19T03:40:24;16.483334;15.383333;11.316667
77516;PMS7003;68414;53.946;27.634;2023-09-19T03:41:24;16.216667;15.950000;11.883333
77516;PMS7003;68414;53.946;27.634;2023-09-19T03:42:24;15.650000;15.350000;10.866667
77516;PMS7003;68414;53.946;27.634;2023-09-19T03:43:24;16.233334;15.800000;12.183333
77516;PMS7003;68414;53.946;27.634;2023-09-19T03:44:24;18.450001;17.533333;12.816667
77516;PMS7003;68414;53.946;27.634;2023-09-19T03:45:24;16.283333;16.066668;12.783334
77516;PMS7003;68414;53.946;27.634;2023-09-19T03:46:24;17.799999;16.900000;12.566667
77516;PMS7003;68414;53.946;27.634;2023-09-19T03:47:24;15.833333;14.866667;11.950000
77516;PMS7003;68414;53.946;27.634;2023-09-19T03:48:24;15.466666;15.000000;11.250000
77516;PMS7003;68414;53.946;27.634;2023-09-19T03:49:24;18.700001;17.816668;13.500000
77516;PMS7003;68414;53.946;27.634;2023-09-19T03:50:24;20.450001;20.066668;15.916667
77516;PMS7003;68414;53.946;27.634;2023-09-19T03:51:24;18.583334;17.366667;12.916667
77516;PMS7003;68414;53.946;27.634;2023-09-19T03:52:24;16.716667;16.650000;12.683333
77516;PMS7003;68414;53.946;27.634;2023-09-19T03:53:25;15.700000;15.150000;11.583333
77516;PMS7003;68414;53.946;27.634;2023-09-19T03:54:24;17.333334;16.366667;12.833333
77516;PMS7003;68414;53.946;27.634;2023-09-19T03:55:24;16.833334;16.433332;12.100000
77516;PMS7003;68414;53.946;27.634;2023-09-19T03:56:24;15.983334;15.333333;11.083333
77516;PMS7003;68414;53.946;27.634;2023-09-19T03:57:24;16.450001;15.483334;11.583333
77516;PMS7003;68414;53.946;27.634;2023-09-19T03:58:24;16.200001;15.483334;11.983334
77516;PMS7003;68414;53.946;27.634;2023-09-19T03:59:24;15.133333;14.900000;11.633333
77516;PMS7003;68414;53.946;27.634;2023-09-19T04:00:24;16.266666;14.900000;11.833333
77516;PMS7003;68414;53.946;27.634;2023-09-19T04:01:24;14.850000;14.550000;11.666667
77516;PMS7003;68414;53.946;27.634;2023-09-19T04:02:24;15.333333;15.083333;11.750000
77516;PMS7003;68414;53.946;27.634;2023-09-19T04:03:24;16.900000;16.400000;13.216666
77516;PMS7003;68414;53.946;27.634;2023-09-19T04:04:24;19.150000;16.683332;12.116667
77516;PMS7003;68414;53.946;27.634;2023-09-19T04:05:24;18.283333;17.750000;12.450000
77516;PMS7003;68414;53.946;27.634;2023-09-19T04:06:24;15.966666;15.166667;11.883333
77516;PMS7003;68414;53.946;27.634;2023-09-19T04:07:24;19.333334;17.650000;12.083333
77516;PMS7003;68414;53.946;27.634;2023-09-19T04:08:24;17.583334;16.883333;12.616667
77516;PMS7003;68414;53.946;27.634;2023-09-19T04:09:25;18.083334;17.000000;12.833333
77516;PMS7003;68414;53.946;27.634;2023-09-19T04:10:24;16.783333;16.783333;13.116667
77516;PMS7003;68414;53.946;27.634;2023-09-19T04:11:24;15.616667;15.600000;12.033334
77516;PMS7003;68414;53.946;27.634;2023-09-19T04:12:24;16.049999;15.266666;11.850000
77516;PMS7003;68414;53.946;27.634;2023-09-19T04:13:26;16.549999;15.716666;12.016666
77516;PMS7003;68414;53.946;27.634;2023-09-19T04:14:24;17.900000;16.450001;12.116667
77516;PMS7003;68414;53.946;27.634;2023-09-19T04:15:24;16.000000;15.700000;11.900000
77516;PMS7003;68414;53.946;27.634;2023-09-19T04:16:24;16.283333;15.783334;12.950000
77516;PMS7003;68414;53.946;27.634;2023-09-19T04:17:24;16.766666;16.299999;12.750000
77516;PMS7003;68414;53.946;27.634;2023-09-19T04:18:24;20.049999;19.100000;14.016666
77516;PMS7003;68414;53.946;27.634;2023-09-19T04:19:24;18.250000;17.250000;13.966666
77516;PMS7003;68414;53.946;27.634;2023-09-19T04:20:24;18.049999;17.183332;13.716666
77516;PMS7003;68414;53.946;27.634;2023-09-19T04:21:24;17.866667;15.800000;12.183333
77516;PMS7003;68414;53.946;27.634;2023-09-19T04:22:25;17.783333;16.683332;12.566667
77516;PMS7003;68414;53.946;27.634;2023-09-19T04:23:24;17.516666;16.799999;12.666667
77516;PMS7003;68414;53.946;27.634;2023-09-19T04:24:24;17.616667;15.716666;12.000000
77516;PMS7003;68414;53.946;27.634;2023-09-19T04:25:24;16.683332;16.033333;12.750000
77516;PMS7003;68414;53.946;27.634;2023-09-19T04:26:24;15.066667;14.900000;12.183333
77516;PMS7003;68414;53.946;27.634;2023-09-19T04:27:24;17.000000;16.633333;12.550000
77516;PMS7003;68414;53.946;27.634;2023-09-19T04:28:24;17.400000;17.066668;13.483334
77516;PMS7003;68414;53.946;27.634;2023-09-19T04:29:24;17.783333;17.400000;12.550000
77516;PMS7003;68414;53.946;27.634;2023-09-19T04:30:24;17.516666;17.266666;13.300000
77516;PMS7003;68414;53.946;27.634;2023-09-19T04:31:25;20.466667;20.000000;15.466666
77516;PMS7003;68414;53.946;27.634;2023-09-19T04:33:25;20.299999;18.450001;14.716666
77516;PMS7003;68414;53.946;27.634;2023-09-19T04:34:24;17.933332;16.516666;12.816667
77516;PMS7003;68414;53.946;27.634;2023-09-19T04:35:24;19.383333;18.666666;13.233334
77516;PMS7003;68414;53.946;27.634;2023-09-19T04:36:25;18.100000;16.850000;13.366667
77516;PMS7003;68414;53.946;27.634;2023-09-19T04:37:24;19.549999;18.733334;14.216666
77516;PMS7003;68414;53.946;27.634;2023-09-19T04:38:24;21.000000;19.400000;14.600000
77516;PMS7003;68414;53.946;27.634;2023-09-19T04:39:24;19.533333;19.200001;15.016666
77516;PMS7003;68414;53.946;27.634;2023-09-19T04:40:24;17.633333;16.716667;12.400000
77516;PMS7003;68414;53.946;27.634;2023-09-19T04:41:24;16.333334;15.866667;12.100000
77516;PMS7003;68414;53.946;27.634;2023-09-19T04:42:24;17.266666;16.916666;13.466666
77516;PMS7003;68414;53.946;27.634;2023-09-19T04:43:25;18.316668;17.083334;13.450000
77516;PMS7003;68414;53.946;27.634;2023-09-19T04:44:24;18.916666;18.116667;12.583333
77516;PMS7003;68414;53.946;27.634;2023-09-19T04:45:25;23.799999;23.200001;17.433332
77516;PMS7003;68414;53.946;27.634;2023-09-19T04:46:24;17.650000;16.083334;12.616667
77516;PMS7003;68414;53.946;27.634;2023-09-19T04:47:24;19.566668;19.400000;15.666667
77516;PMS7003;68414;53.946;27.634;2023-09-19T04:48:24;20.766666;19.716667;15.916667
77516;PMS7003;68414;53.946;27.634;2023-09-19T04:49:24;21.366667;20.683332;15.700000
77516;PMS7003;68414;53.946;27.634;2023-09-19T04:50:24;20.733334;19.750000;15.066667
77516;PMS7003;68414;53.946;27.634;2023-09-19T04:51:24;19.783333;19.333334;14.916667
77516;PMS7003;68414;53.946;27.634;2023-09-19T04:52:24;20.016666;19.549999;13.816667
77516;PMS7003;68414;53.946;27.634;2023-09-19T04:53:24;17.766666;17.483334;13.700000
77516;PMS7003;68414;53.946;27.634;2023-09-19T04:54:24;19.700001;18.083334;13.416667
77516;PMS7003;68414;53.946;27.634;2023-09-19T04:55:24;20.750000;20.433332;15.433333
77516;PMS7003;68414;53.946;27.634;2023-09-19T04:56:24;21.483334;21.116667;16.283333
77516;PMS7003;68414;53.946;27.634;2023-09-19T04:57:24;19.750000;18.316668;13.816667
77516;PMS7003;68414;53.946;27.634;2023-09-19T04:58:24;18.566668;18.366667;14.333333
77516;PMS7003;68414;53.946;27.634;2023-09-19T04:59:24;15.933333;15.416667;12.483334
77516;PMS7003;68414;53.946;27.634;2023-09-19T05:00:26;18.083334;17.383333;13.033334
77516;PMS7003;68414;53.946;27.634;2023-09-19T05:01:25;20.183332;18.433332;14.133333
77516;PMS7003;68414;53.946;27.634;2023-09-19T05:02:24;28.650000;27.850000;20.750000
77516;PMS7003;68414;53.946;27.634;2023-09-19T05:03:24;23.750000;23.133333;17.916666
77516;PMS7003;68414;53.946;27.634;2023-09-19T05:04:24;21.200001;20.883333;15.983334
77516;PMS7003;68414;53.946;27.634;2023-09-19T05:05:24;26.016666;25.516666;18.783333
77516;PMS7003;68414;53.946;27.634;2023-09-19T05:06:24;20.500000;18.733334;13.283334
77516;PMS7003;68414;53.946;27.634;2023-09-19T05:07:24;18.333334;17.950001;13.900000